createdAt,value
2019-01-22T00:02:28.121Z,32.73
2019-01-22T00:04:56.422Z,36.10
2019-01-22T00:07:25.084Z,34.57
2019-01-22T00:09:53.291Z,33.87
2019-01-22T00:12:21.512Z,34.37
2019-01-22T00:14:49.838Z,33.10
2019-01-22T00:17:18.100Z,34.63
2019-01-22T00:19:46.289Z,34.60
2019-01-22T00:22:14.800Z,34.37
2019-01-22T00:24:42.993Z,35.20
2019-01-22T00:27:11.263Z,33.80
2019-01-22T00:29:39.500Z,32.77
2019-01-22T00:32:07.776Z,33.60
2019-01-22T00:34:36.001Z,36.73
2019-01-22T00:37:04.617Z,34.40
2019-01-22T00:39:32.908Z,34.47
2019-01-22T00:42:01.175Z,33.67
2019-01-22T00:44:29.380Z,35.60
2019-01-22T00:46:57.565Z,32.47
2019-01-22T00:49:25.796Z,33.27
2019-01-22T00:51:54.055Z,31.47
2019-01-22T00:54:23.191Z,35.50
2019-01-22T00:56:51.490Z,34.00
2019-01-22T00:59:19.794Z,33.37
2019-01-22T01:01:48.084Z,36.00
2019-01-22T01:04:16.354Z,33.93
2019-01-22T01:06:44.573Z,33.70
2019-01-22T01:09:12.867Z,34.07
2019-01-22T01:11:41.055Z,33.13
2019-01-22T01:14:10.241Z,35.40
2019-01-22T01:16:38.523Z,34.50
2019-01-22T01:19:07.093Z,34.23
2019-01-22T01:21:35.325Z,33.57
2019-01-22T01:24:03.690Z,33.67
2019-01-22T01:26:31.993Z,35.40
2019-01-22T01:29:00.268Z,36.87
2019-01-22T01:31:28.471Z,33.83
2019-01-22T01:33:57.942Z,35.20
2019-01-22T01:36:26.226Z,35.93
2019-01-22T01:38:55.436Z,35.70
2019-01-22T01:41:23.629Z,36.47
2019-01-22T01:43:51.876Z,35.40
2019-01-22T01:46:20.062Z,35.87
2019-01-22T01:48:48.644Z,35.47
2019-01-22T01:51:16.837Z,36.77
2019-01-22T01:53:45.036Z,33.83
2019-01-22T01:56:13.304Z,33.40
2019-01-22T01:58:41.554Z,34.40
2019-01-22T02:01:09.815Z,34.43
2019-01-22T02:03:38.113Z,34.20
2019-01-22T02:06:06.421Z,32.70
2019-01-22T02:08:34.612Z,34.00
2019-01-22T02:11:02.808Z,35.73
2019-01-22T02:13:31.029Z,33.47
2019-01-22T02:16:03.514Z,33.93
2019-01-22T02:18:43.531Z,34.23
2019-01-22T02:21:16.267Z,32.83
2019-01-22T02:23:46.003Z,31.53
2019-01-22T02:26:18.657Z,36.03
2019-01-22T02:28:51.352Z,34.07
2019-01-22T02:31:24.006Z,36.80
2019-01-22T02:33:53.765Z,32.53
2019-01-22T02:36:29.536Z,34.00
2019-01-22T02:39:02.114Z,32.20
2019-01-22T02:41:31.864Z,33.07
2019-01-22T02:44:07.590Z,34.83
2019-01-22T02:46:37.422Z,35.07
2019-01-22T02:49:09.817Z,34.83
2019-01-22T02:51:42.612Z,34.90
2019-01-22T02:54:12.105Z,34.80
2019-01-22T02:56:41.904Z,33.83
2019-01-22T02:59:20.661Z,33.20
2019-01-22T03:02:08.635Z,34.10
2019-01-22T03:04:38.482Z,33.53
2019-01-22T03:07:08.314Z,35.73
2019-01-22T03:09:38.323Z,34.83
2019-01-22T03:12:10.874Z,35.13
2019-01-22T03:14:43.360Z,33.83
2019-01-22T03:17:13.122Z,33.67
2019-01-22T03:19:59.706Z,34.77
2019-01-22T03:22:29.537Z,33.30
2019-01-22T03:25:08.114Z,33.87
2019-01-22T03:27:43.596Z,32.87
2019-01-22T03:30:16.090Z,33.97
2019-01-22T03:32:48.836Z,33.67
2019-01-22T03:35:18.681Z,32.90
2019-01-22T03:37:57.484Z,32.77
2019-01-22T03:40:30.161Z,34.80
2019-01-22T03:43:05.636Z,32.13
2019-01-22T03:45:44.083Z,33.97
2019-01-22T03:48:14.205Z,32.83
2019-01-22T03:50:52.794Z,30.20
2019-01-22T03:53:28.247Z,33.10
2019-01-22T03:56:00.652Z,32.43
2019-01-22T03:58:28.886Z,32.17
2019-01-22T04:00:58.825Z,32.50
2019-01-22T04:03:27.049Z,33.33
2019-01-22T04:05:55.250Z,32.47
2019-01-22T04:08:23.561Z,32.93
2019-01-22T04:10:52.791Z,35.90
2019-01-22T04:13:20.976Z,30.67
2019-01-22T04:15:49.176Z,32.63
2019-01-22T04:18:17.376Z,32.77
2019-01-22T04:20:45.839Z,33.83
2019-01-22T04:23:15.216Z,31.50
2019-01-22T04:25:44.960Z,33.73
2019-01-22T04:28:14.696Z,32.90
2019-01-22T04:30:56.745Z,33.07
2019-01-22T04:33:26.522Z,29.77
2019-01-22T04:36:12.773Z,30.87
2019-01-22T04:38:42.533Z,29.77
2019-01-22T04:41:21.552Z,31.23
2019-01-22T04:43:57.154Z,30.80
2019-01-22T04:46:26.972Z,32.03
2019-01-22T04:48:59.367Z,29.50
2019-01-22T04:51:35.069Z,29.37
2019-01-22T04:54:09.664Z,31.30
2019-01-22T04:56:39.258Z,31.83
2019-01-22T04:59:24.335Z,33.47
2019-01-22T05:02:06.439Z,32.07
2019-01-22T05:04:36.169Z,30.00
2019-01-22T05:07:17.892Z,31.70
2019-01-22T05:09:50.932Z,32.57
2019-01-22T05:12:20.689Z,30.87
2019-01-22T05:15:06.960Z,31.10
2019-01-22T05:17:36.684Z,31.70
2019-01-22T05:20:06.449Z,29.60
2019-01-22T05:22:36.290Z,32.33
2019-01-22T05:25:08.987Z,30.73
2019-01-22T05:27:38.707Z,32.97
2019-01-22T05:30:23.923Z,32.53
2019-01-22T05:33:10.032Z,32.10
2019-01-22T05:35:56.425Z,30.27
2019-01-22T05:38:32.244Z,33.77
2019-01-22T05:41:11.208Z,31.70
2019-01-22T05:43:44.105Z,32.27
2019-01-22T05:46:19.588Z,32.30
2019-01-22T05:48:55.227Z,30.23
2019-01-22T05:51:24.961Z,31.90
2019-01-22T05:54:00.418Z,31.60
2019-01-22T05:56:30.190Z,33.97
2019-01-22T05:59:08.866Z,30.33
2019-01-22T06:01:38.593Z,32.53
2019-01-22T06:04:08.336Z,30.67
2019-01-22T06:06:47.321Z,31.87
2019-01-22T06:09:23.045Z,33.00
2019-01-22T06:12:09.469Z,31.67
2019-01-22T06:14:41.869Z,32.60
2019-01-22T06:17:14.534Z,33.33
2019-01-22T06:19:44.309Z,32.17
2019-01-22T06:22:31.007Z,33.80
2019-01-22T06:25:00.748Z,31.20
2019-01-22T06:27:29.033Z,34.40
2019-01-22T06:30:04.813Z,33.03
2019-01-22T06:32:34.564Z,32.40
2019-01-22T06:35:04.304Z,34.00
2019-01-22T06:37:36.748Z,30.63
2019-01-22T06:40:06.501Z,32.67
2019-01-22T06:42:36.256Z,34.00
2019-01-22T06:45:06.018Z,33.43
2019-01-22T06:47:35.739Z,33.90
2019-01-22T06:50:11.648Z,33.07
2019-01-22T06:52:41.376Z,33.33
2019-01-22T06:55:11.139Z,32.17
2019-01-22T06:57:57.458Z,33.97
2019-01-22T07:00:45.240Z,30.97
2019-01-22T07:03:15.001Z,32.77
2019-01-22T07:05:47.621Z,32.60
2019-01-22T07:08:26.254Z,32.77
2019-01-22T07:10:55.987Z,30.97
2019-01-22T07:13:25.716Z,33.03
2019-01-22T07:15:58.461Z,31.13
2019-01-22T07:18:28.182Z,33.13
2019-01-22T07:21:09.908Z,33.60
2019-01-22T07:23:39.712Z,33.10
2019-01-22T07:26:09.469Z,33.87
2019-01-22T07:28:42.049Z,34.97
2019-01-22T07:31:23.800Z,32.27
2019-01-22T07:34:10.037Z,31.47
2019-01-22T07:36:48.705Z,32.77
2019-01-22T07:39:18.472Z,33.47
2019-01-22T07:41:48.229Z,32.17
2019-01-22T07:44:33.197Z,33.63
2019-01-22T07:47:02.949Z,33.67
2019-01-22T07:49:35.593Z,36.27
2019-01-22T07:52:11.584Z,36.53
2019-01-22T07:54:53.555Z,33.77
2019-01-22T07:57:18.776Z,33.13
2019-01-22T07:59:54.506Z,31.90
2019-01-22T08:02:24.257Z,33.20
2019-01-22T08:05:10.850Z,32.10
2019-01-22T08:07:54.409Z,32.63
2019-01-22T08:10:40.631Z,32.07
2019-01-22T08:13:19.591Z,31.17
2019-01-22T08:15:49.317Z,32.20
2019-01-22T08:18:25.168Z,33.83
2019-01-22T08:20:54.900Z,32.40
2019-01-22T08:23:39.965Z,32.80
2019-01-22T08:26:12.348Z,32.70
2019-01-22T08:28:51.260Z,31.80
2019-01-22T08:31:23.876Z,31.07
2019-01-22T08:33:53.669Z,32.40
2019-01-22T08:36:26.413Z,31.63
2019-01-22T08:39:08.168Z,32.30
2019-01-22T08:41:49.952Z,33.20
2019-01-22T08:44:28.717Z,33.90
2019-01-22T08:47:01.425Z,34.67
2019-01-22T08:49:31.187Z,35.03
2019-01-22T08:52:03.633Z,34.23
2019-01-22T08:54:45.358Z,36.60
2019-01-22T08:57:15.117Z,34.93
2019-01-22T08:59:50.765Z,33.13
2019-01-22T09:02:23.140Z,33.63
2019-01-22T09:04:55.764Z,33.50
2019-01-22T09:07:43.842Z,36.27
2019-01-22T09:10:25.750Z,33.50
2019-01-22T09:12:58.048Z,31.80
2019-01-22T09:15:27.821Z,31.27
2019-01-22T09:18:00.202Z,32.57
2019-01-22T09:20:35.645Z,30.83
2019-01-22T09:23:05.379Z,32.87
2019-01-22T09:25:41.248Z,31.23
2019-01-22T09:28:16.902Z,31.87
2019-01-22T09:30:49.699Z,31.00
2019-01-22T09:33:22.386Z,31.17
2019-01-22T09:35:57.759Z,32.93
2019-01-22T09:38:25.944Z,31.00
2019-01-22T09:40:54.169Z,34.60
2019-01-22T09:43:22.381Z,32.87
2019-01-22T09:45:50.604Z,31.07
2019-01-22T09:48:18.804Z,30.60
2019-01-22T09:50:47.021Z,29.80
2019-01-22T09:53:15.244Z,30.77
2019-01-22T09:55:43.458Z,30.03
2019-01-22T09:58:11.639Z,32.20
2019-01-22T10:00:39.980Z,29.40
2019-01-22T10:03:08.265Z,31.00
2019-01-22T10:05:36.478Z,27.50
2019-01-22T10:08:04.676Z,28.00
2019-01-22T10:10:32.857Z,29.43
2019-01-22T10:13:01.054Z,30.63
2019-01-22T10:15:29.272Z,27.90
2019-01-22T10:17:57.476Z,29.83
2019-01-22T10:20:25.660Z,28.30
2019-01-22T10:22:53.868Z,28.53
2019-01-22T10:25:22.043Z,28.77
2019-01-22T10:27:50.269Z,29.00
2019-01-22T10:30:22.200Z,28.30
2019-01-22T10:32:50.423Z,27.87
2019-01-22T10:35:18.708Z,27.43
2019-01-22T10:37:46.889Z,26.30
2019-01-22T10:40:16.561Z,26.63
2019-01-22T10:42:44.788Z,28.10
2019-01-22T10:45:14.293Z,26.30
2019-01-22T10:47:42.507Z,26.97
2019-01-22T10:50:11.928Z,29.00
2019-01-22T10:52:40.162Z,25.30
2019-01-22T10:55:10.044Z,26.70
2019-01-22T10:57:38.405Z,26.00
2019-01-22T11:00:08.161Z,25.77
2019-01-22T11:02:36.387Z,27.77
2019-01-22T11:05:06.249Z,25.53
2019-01-22T11:07:34.429Z,24.97
2019-01-22T11:10:02.916Z,26.70
2019-01-22T11:12:31.124Z,23.60
2019-01-22T11:14:59.307Z,25.10
2019-01-22T11:17:27.526Z,25.30
2019-01-22T11:19:55.749Z,26.37
2019-01-22T11:22:23.934Z,25.70
2019-01-22T11:24:52.875Z,24.60
2019-01-22T11:27:21.231Z,24.37
2019-01-22T11:29:49.449Z,26.03
2019-01-22T11:32:17.628Z,25.23
2019-01-22T11:34:45.856Z,24.30
2019-01-22T11:37:14.108Z,25.87
2019-01-22T11:39:42.337Z,25.80
2019-01-22T11:42:10.516Z,23.77
2019-01-22T11:44:38.740Z,23.77
2019-01-22T11:47:06.956Z,24.97
2019-01-22T11:49:35.169Z,25.40
2019-01-22T12:19:04.797Z,23.30
2019-01-22T15:40:32.840Z,22.40
2019-01-22T15:43:01.036Z,21.67
2019-01-22T15:45:29.337Z,21.53
2019-01-22T15:47:57.609Z,21.77
2019-01-22T15:50:25.814Z,22.20
2019-01-22T15:52:54.033Z,20.93
2019-01-22T15:55:23.583Z,22.77
2019-01-22T15:57:51.840Z,20.90
2019-01-22T16:00:21.221Z,22.40
2019-01-22T16:02:49.496Z,22.63
2019-01-22T16:05:17.791Z,22.30
2019-01-22T16:07:46.044Z,22.77
2019-01-22T16:10:14.310Z,23.73
2019-01-22T16:12:42.525Z,22.90
2019-01-22T16:15:11.988Z,23.27
2019-01-22T16:17:40.265Z,23.43
2019-01-22T16:20:15.444Z,22.90
2019-01-22T16:22:43.628Z,23.27
2019-01-22T16:25:12.003Z,22.97
2019-01-22T16:27:40.221Z,22.70
2019-01-22T16:30:12.814Z,22.20
2019-01-22T16:32:41.000Z,24.47
2019-01-22T16:35:10.505Z,24.10
2019-01-22T16:37:38.688Z,23.47
2019-01-22T16:40:08.478Z,24.00
2019-01-22T16:42:36.671Z,22.93
2019-01-22T16:45:06.412Z,23.77
2019-01-22T16:47:34.616Z,22.50
2019-01-22T16:50:03.110Z,23.37
2019-01-22T16:52:31.337Z,23.50
2019-01-22T16:54:59.512Z,24.37
2019-01-22T16:57:27.741Z,23.77
2019-01-22T16:59:55.963Z,22.80
2019-01-22T17:02:24.185Z,22.20
2019-01-22T17:04:52.472Z,24.80
2019-01-22T17:07:20.681Z,23.67
2019-01-22T17:09:48.876Z,24.40
2019-01-22T17:12:17.062Z,22.90
2019-01-22T17:14:45.313Z,22.70
2019-01-22T17:17:13.526Z,23.60
2019-01-22T17:19:41.742Z,24.00
2019-01-22T17:22:09.962Z,23.50
2019-01-22T17:24:38.140Z,26.20
2019-01-22T17:27:07.392Z,24.60
2019-01-22T17:29:35.744Z,23.60
2019-01-22T17:32:11.312Z,25.90
2019-01-22T17:34:40.101Z,24.63
2019-01-22T17:37:08.325Z,24.77
2019-01-22T17:39:36.553Z,25.33
2019-01-22T17:42:04.774Z,25.23
2019-01-22T17:44:33.010Z,26.27
2019-01-22T17:47:01.197Z,24.60
2019-01-22T17:49:29.395Z,26.53
2019-01-22T17:51:57.672Z,25.90
2019-01-22T17:54:25.896Z,25.83
2019-01-22T17:56:54.117Z,26.40
2019-01-22T17:59:22.291Z,26.40
2019-01-22T18:01:50.524Z,25.87
2019-01-22T18:04:18.700Z,24.53
2019-01-22T18:06:46.935Z,25.17
2019-01-22T18:09:15.145Z,24.53
2019-01-22T18:11:43.376Z,27.03
2019-01-22T18:14:11.585Z,25.30
2019-01-22T18:16:39.790Z,25.57
2019-01-22T18:19:07.988Z,26.40
2019-01-22T18:21:36.209Z,25.93
2019-01-22T18:24:04.459Z,25.30
2019-01-22T18:26:32.642Z,24.17
2019-01-22T18:29:00.827Z,25.47
2019-01-22T18:31:29.023Z,25.93
2019-01-22T18:33:57.244Z,26.03
2019-01-22T18:36:25.443Z,26.90
2019-01-22T18:38:53.716Z,25.80
2019-01-22T18:41:21.907Z,27.67
2019-01-22T18:43:50.125Z,25.87
2019-01-22T18:46:18.312Z,26.60
2019-01-22T18:48:46.529Z,27.00
2019-01-22T18:51:15.820Z,26.30
2019-01-22T18:53:44.020Z,25.30
2019-01-22T18:56:12.258Z,24.97
2019-01-22T18:58:40.489Z,26.73
2019-01-22T19:01:08.697Z,24.43
2019-01-22T19:03:36.993Z,24.50
2019-01-22T19:06:05.213Z,24.87
2019-01-22T19:08:33.437Z,25.43
2019-01-22T19:11:01.649Z,24.57
2019-01-22T19:13:29.873Z,26.90
2019-01-22T19:15:58.055Z,25.03
2019-01-22T19:18:26.245Z,24.90
2019-01-22T19:20:54.435Z,25.67
2019-01-22T19:23:22.640Z,23.80
2019-01-22T19:25:50.882Z,25.10
2019-01-22T19:28:19.100Z,24.20
2019-01-22T19:30:47.377Z,24.07
2019-01-22T19:33:15.632Z,24.23
2019-01-22T19:35:46.605Z,24.23
2019-01-22T19:38:14.801Z,23.97
2019-01-22T19:40:42.992Z,22.90
2019-01-22T19:43:11.172Z,24.00
2019-01-22T19:45:39.388Z,23.30
2019-01-22T19:48:07.579Z,23.00
2019-01-22T19:50:35.809Z,23.70
2019-01-22T19:53:04.284Z,23.03
2019-01-22T19:55:32.455Z,24.93
2019-01-22T19:58:00.668Z,23.60
2019-01-22T20:00:33.353Z,22.93
2019-01-22T20:03:01.938Z,24.50
2019-01-22T20:05:30.191Z,24.03
2019-01-22T20:07:58.368Z,24.27
2019-01-22T20:10:26.557Z,24.60
2019-01-22T20:12:54.756Z,23.60
2019-01-22T20:15:23.445Z,24.13
2019-01-22T20:17:51.677Z,25.53
2019-01-22T20:20:20.327Z,23.97
2019-01-22T20:22:48.597Z,25.07
2019-01-22T20:25:17.283Z,24.90
2019-01-22T20:27:48.186Z,25.20
2019-01-22T20:30:17.156Z,25.50
2019-01-22T20:32:45.406Z,24.87
2019-01-22T20:35:13.656Z,26.70
2019-01-22T20:37:41.840Z,25.37
2019-01-22T20:40:14.362Z,25.00
2019-01-22T20:42:42.582Z,24.93
2019-01-22T20:45:15.113Z,25.60
2019-01-22T20:47:43.296Z,24.93
2019-01-22T20:50:18.783Z,25.23
2019-01-22T20:52:42.568Z,27.47
2019-01-22T20:55:14.768Z,26.87
2019-01-22T20:57:42.967Z,25.10
2019-01-22T21:00:12.704Z,26.53
2019-01-22T21:02:40.903Z,26.53
2019-01-22T21:05:10.720Z,26.87
2019-01-22T21:07:39.831Z,26.90
2019-01-22T21:10:09.583Z,27.30
2019-01-22T21:12:37.808Z,26.63
2019-01-22T21:15:07.897Z,28.37
2019-01-22T21:17:36.108Z,27.20
2019-01-22T21:20:06.855Z,28.70
2019-01-22T21:22:35.066Z,27.90
2019-01-22T21:25:04.237Z,29.60
2019-01-22T21:27:32.472Z,31.50
2019-01-22T21:30:00.689Z,30.37
2019-01-22T21:32:28.883Z,30.27
2019-01-22T21:34:57.685Z,31.33
2019-01-22T21:37:25.901Z,30.37
2019-01-22T21:39:54.120Z,29.50
2019-01-22T21:42:22.333Z,31.00
2019-01-22T21:44:50.536Z,31.20
2019-01-22T21:47:18.719Z,30.73
2019-01-22T21:49:46.990Z,31.67
2019-01-22T21:52:15.205Z,31.07
2019-01-22T21:54:43.429Z,32.80
2019-01-22T21:57:11.711Z,32.37
2019-01-22T21:59:39.934Z,29.90
2019-01-22T22:02:08.124Z,31.40
2019-01-22T22:04:37.249Z,31.40
2019-01-22T22:07:05.474Z,31.83
2019-01-22T22:09:33.681Z,29.10
2019-01-22T22:12:02.811Z,31.77
2019-01-22T22:14:31.020Z,30.03
2019-01-22T22:16:59.207Z,31.90
2019-01-22T22:19:27.440Z,30.87
2019-01-22T22:21:55.652Z,32.07
2019-01-22T22:24:23.894Z,33.27
2019-01-22T22:26:52.117Z,31.77
2019-01-22T22:29:20.346Z,30.90
2019-01-22T22:31:48.629Z,30.60
2019-01-22T22:34:16.824Z,31.30
2019-01-22T22:36:45.065Z,30.67
2019-01-22T22:39:13.303Z,32.53
2019-01-22T22:41:41.549Z,33.93
2019-01-22T22:44:11.966Z,32.50
2019-01-22T22:46:40.285Z,34.00
2019-01-22T22:49:08.559Z,32.13
2019-01-22T22:51:37.644Z,34.47
2019-01-22T22:54:05.849Z,35.30
2019-01-22T22:56:34.051Z,33.23
2019-01-22T22:59:03.204Z,35.13
2019-01-22T23:01:31.969Z,36.47
2019-01-22T23:04:00.189Z,35.50
2019-01-22T23:06:28.387Z,34.07
2019-01-22T23:08:57.624Z,32.90
2019-01-22T23:11:25.861Z,34.30
2019-01-22T23:13:54.080Z,34.70
2019-01-22T23:16:22.320Z,36.97
2019-01-22T23:18:50.541Z,34.87
2019-01-22T23:21:18.779Z,34.83
2019-01-22T23:23:47.046Z,35.00
2019-01-22T23:26:15.237Z,35.87
2019-01-22T23:28:43.476Z,35.50
2019-01-22T23:31:11.693Z,34.70
2019-01-22T23:33:39.911Z,36.20
2019-01-22T23:36:08.131Z,35.47
2019-01-22T23:38:36.449Z,36.83
2019-01-22T23:41:04.704Z,35.27
2019-01-22T23:43:33.579Z,34.53
2019-01-22T23:46:01.777Z,34.00
2019-01-22T23:48:29.980Z,34.70
2019-01-22T23:50:58.169Z,35.80
2019-01-22T23:53:26.411Z,32.80
2019-01-22T23:55:54.664Z,32.00
2019-01-22T23:58:22.864Z,32.07
